sensor_id;sensor_type;location;lat;lon;timestamp;P1;durP1;ratioP1;P2;durP2;ratioP2
32876;SDS011;19226;51.600;8.034;2023-02-22T00:01:29;206.02;;;24.65;;
32876;SDS011;19226;51.600;8.034;2023-02-22T00:04:17;245.13;;;25.05;;
32876;SDS011;19226;51.600;8.034;2023-02-22T00:07:07;175.75;;;23.75;;
32876;SDS011;19226;51.600;8.034;2023-02-22T00:09:51;208.60;;;24.00;;
32876;SDS011;19226;51.600;8.034;2023-02-22T00:12:38;300.35;;;29.10;;
32876;SDS011;19226;51.600;8.034;2023-02-22T00:15:24;287.15;;;28.95;;
32876;SDS011;19226;51.600;8.034;2023-02-22T00:18:14;326.05;;;28.35;;
32876;SDS011;19226;51.600;8.034;2023-02-22T00:21:00;245.82;;;25.45;;
32876;SDS011;19226;51.600;8.034;2023-02-22T00:23:45;247.63;;;25.90;;
32876;SDS011;19226;51.600;8.034;2023-02-22T00:26:32;546.70;;;35.40;;
32876;SDS011;19226;51.600;8.034;2023-02-22T00:29:16;385.90;;;27.60;;
32876;SDS011;19226;51.600;8.034;2023-02-22T00:32:02;397.08;;;28.27;;
32876;SDS011;19226;51.600;8.034;2023-02-22T00:34:49;483.80;;;31.77;;
32876;SDS011;19226;51.600;8.034;2023-02-22T00:37:35;463.17;;;29.33;;
32876;SDS011;19226;51.600;8.034;2023-02-22T00:40:21;365.73;;;27.25;;
32876;SDS011;19226;51.600;8.034;2023-02-22T00:43:07;380.77;;;28.50;;
32876;SDS011;19226;51.600;8.034;2023-02-22T00:45:51;505.08;;;34.22;;
32876;SDS011;19226;51.600;8.034;2023-02-22T00:48:36;411.75;;;30.48;;
32876;SDS011;19226;51.600;8.034;2023-02-22T00:51:23;284.45;;;26.50;;
32876;SDS011;19226;51.600;8.034;2023-02-22T00:54:09;539.67;;;38.00;;
32876;SDS011;19226;51.600;8.034;2023-02-22T00:56:53;395.60;;;26.98;;
32876;SDS011;19226;51.600;8.034;2023-02-22T00:59:38;348.55;;;29.05;;
32876;SDS011;19226;51.600;8.034;2023-02-22T01:02:22;441.98;;;31.48;;
32876;SDS011;19226;51.600;8.034;2023-02-22T01:05:11;271.67;;;26.70;;
32876;SDS011;19226;51.600;8.034;2023-02-22T01:07:58;401.35;;;29.88;;
32876;SDS011;19226;51.600;8.034;2023-02-22T01:10:44;240.93;;;23.77;;
32876;SDS011;19226;51.600;8.034;2023-02-22T01:13:29;316.45;;;27.63;;
32876;SDS011;19226;51.600;8.034;2023-02-22T01:16:14;246.35;;;22.42;;
32876;SDS011;19226;51.600;8.034;2023-02-22T01:18:58;495.73;;;31.42;;
32876;SDS011;19226;51.600;8.034;2023-02-22T01:21:44;449.52;;;28.58;;
32876;SDS011;19226;51.600;8.034;2023-02-22T01:24:29;432.90;;;28.20;;
32876;SDS011;19226;51.600;8.034;2023-02-22T01:27:14;364.20;;;23.63;;
32876;SDS011;19226;51.600;8.034;2023-02-22T01:30:00;481.42;;;31.27;;
32876;SDS011;19226;51.600;8.034;2023-02-22T01:32:52;322.70;;;23.05;;
32876;SDS011;19226;51.600;8.034;2023-02-22T01:35:37;311.42;;;22.05;;
32876;SDS011;19226;51.600;8.034;2023-02-22T01:38:25;241.30;;;19.70;;
32876;SDS011;19226;51.600;8.034;2023-02-22T01:41:11;404.23;;;23.05;;
32876;SDS011;19226;51.600;8.034;2023-02-22T01:43:56;568.63;;;34.13;;
32876;SDS011;19226;51.600;8.034;2023-02-22T01:46:40;333.33;;;21.05;;
32876;SDS011;19226;51.600;8.034;2023-02-22T01:49:26;425.95;;;25.00;;
32876;SDS011;19226;51.600;8.034;2023-02-22T01:52:19;322.35;;;21.00;;
32876;SDS011;19226;51.600;8.034;2023-02-22T01:55:04;250.10;;;18.02;;
32876;SDS011;19226;51.600;8.034;2023-02-22T01:57:48;261.65;;;17.63;;
32876;SDS011;19226;51.600;8.034;2023-02-22T02:00:33;474.95;;;21.23;;
32876;SDS011;19226;51.600;8.034;2023-02-22T02:03:19;206.38;;;17.17;;
32876;SDS011;19226;51.600;8.034;2023-02-22T02:06:11;150.23;;;15.05;;
32876;SDS011;19226;51.600;8.034;2023-02-22T02:08:59;283.70;;;17.52;;
32876;SDS011;19226;51.600;8.034;2023-02-22T02:11:53;293.65;;;17.27;;
32876;SDS011;19226;51.600;8.034;2023-02-22T02:14:39;343.17;;;19.58;;
32876;SDS011;19226;51.600;8.034;2023-02-22T02:17:24;297.73;;;17.95;;
32876;SDS011;19226;51.600;8.034;2023-02-22T02:20:31;146.05;;;15.00;;
32876;SDS011;19226;51.600;8.034;2023-02-22T02:35:31;148.43;;;13.70;;
32876;SDS011;19226;51.600;8.034;2023-02-22T02:38:45;107.15;;;11.60;;
32876;SDS011;19226;51.600;8.034;2023-02-22T02:41:47;84.45;;;10.60;;
32876;SDS011;19226;51.600;8.034;2023-02-22T02:44:42;90.53;;;11.73;;
32876;SDS011;19226;51.600;8.034;2023-02-22T02:47:35;134.68;;;12.75;;
32876;SDS011;19226;51.600;8.034;2023-02-22T02:50:30;217.77;;;14.13;;
32876;SDS011;19226;51.600;8.034;2023-02-22T02:53:21;87.63;;;10.68;;
32876;SDS011;19226;51.600;8.034;2023-02-22T02:56:08;197.52;;;13.77;;
32876;SDS011;19226;51.600;8.034;2023-02-22T02:58:53;115.60;;;11.60;;
32876;SDS011;19226;51.600;8.034;2023-02-22T03:07:54;32.78;;;8.85;;
32876;SDS011;19226;51.600;8.034;2023-02-22T03:10:54;51.40;;;9.75;;
32876;SDS011;19226;51.600;8.034;2023-02-22T03:13:52;114.47;;;11.68;;
32876;SDS011;19226;51.600;8.034;2023-02-22T03:16:55;102.57;;;11.45;;
32876;SDS011;19226;51.600;8.034;2023-02-22T03:20:00;132.98;;;11.63;;
32876;SDS011;19226;51.600;8.034;2023-02-22T03:22:54;86.82;;;10.02;;
32876;SDS011;19226;51.600;8.034;2023-02-22T03:25:47;154.63;;;11.73;;
32876;SDS011;19226;51.600;8.034;2023-02-22T03:28:37;86.75;;;10.35;;
32876;SDS011;19226;51.600;8.034;2023-02-22T03:31:25;52.90;;;9.57;;
32876;SDS011;19226;51.600;8.034;2023-02-22T03:34:15;140.68;;;10.55;;
32876;SDS011;19226;51.600;8.034;2023-02-22T03:37:09;163.82;;;10.80;;
32876;SDS011;19226;51.600;8.034;2023-02-22T03:40:00;100.82;;;9.10;;
32876;SDS011;19226;51.600;8.034;2023-02-22T03:43:06;175.25;;;12.05;;
32876;SDS011;19226;51.600;8.034;2023-02-22T03:45:59;146.60;;;9.63;;
32876;SDS011;19226;51.600;8.034;2023-02-22T03:48:50;127.68;;;10.00;;
32876;SDS011;19226;51.600;8.034;2023-02-22T03:51:50;152.90;;;12.70;;
32876;SDS011;19226;51.600;8.034;2023-02-22T03:54:35;103.20;;;9.38;;
32876;SDS011;19226;51.600;8.034;2023-02-22T03:57:21;64.57;;;8.07;;
32876;SDS011;19226;51.600;8.034;2023-02-22T04:03:06;57.78;;;8.68;;
32876;SDS011;19226;51.600;8.034;2023-02-22T04:05:51;68.25;;;8.45;;
32876;SDS011;19226;51.600;8.034;2023-02-22T04:08:37;50.20;;;7.63;;
32876;SDS011;19226;51.600;8.034;2023-02-22T04:11:21;44.72;;;8.77;;
32876;SDS011;19226;51.600;8.034;2023-02-22T04:14:06;42.53;;;8.20;;
32876;SDS011;19226;51.600;8.034;2023-02-22T04:16:52;25.77;;;7.57;;
32876;SDS011;19226;51.600;8.034;2023-02-22T04:19:36;43.85;;;10.18;;
32876;SDS011;19226;51.600;8.034;2023-02-22T04:22:22;25.90;;;8.85;;
32876;SDS011;19226;51.600;8.034;2023-02-22T04:25:07;21.25;;;8.75;;
32876;SDS011;19226;51.600;8.034;2023-02-22T04:27:52;12.88;;;7.95;;
32876;SDS011;19226;51.600;8.034;2023-02-22T04:30:45;16.35;;;8.15;;
32876;SDS011;19226;51.600;8.034;2023-02-22T04:33:32;50.30;;;8.32;;
32876;SDS011;19226;51.600;8.034;2023-02-22T04:36:16;36.63;;;8.50;;
32876;SDS011;19226;51.600;8.034;2023-02-22T04:39:02;28.52;;;7.82;;
32876;SDS011;19226;51.600;8.034;2023-02-22T04:41:48;41.08;;;8.82;;
32876;SDS011;19226;51.600;8.034;2023-02-22T04:44:32;24.60;;;8.73;;
32876;SDS011;19226;51.600;8.034;2023-02-22T04:47:17;33.80;;;8.38;;
32876;SDS011;19226;51.600;8.034;2023-02-22T04:50:02;69.35;;;10.32;;
32876;SDS011;19226;51.600;8.034;2023-02-22T04:52:49;25.75;;;7.85;;
32876;SDS011;19226;51.600;8.034;2023-02-22T04:55:33;50.65;;;9.07;;
32876;SDS011;19226;51.600;8.034;2023-02-22T04:58:18;88.30;;;9.18;;
32876;SDS011;19226;51.600;8.034;2023-02-22T05:01:05;31.30;;;8.43;;
32876;SDS011;19226;51.600;8.034;2023-02-22T05:03:51;24.20;;;8.60;;
32876;SDS011;19226;51.600;8.034;2023-02-22T05:06:35;41.47;;;9.05;;
32876;SDS011;19226;51.600;8.034;2023-02-22T05:09:20;32.83;;;8.82;;
32876;SDS011;19226;51.600;8.034;2023-02-22T05:12:04;29.35;;;8.30;;
32876;SDS011;19226;51.600;8.034;2023-02-22T05:14:49;23.25;;;8.27;;
32876;SDS011;19226;51.600;8.034;2023-02-22T05:17:34;29.63;;;7.80;;
32876;SDS011;19226;51.600;8.034;2023-02-22T05:23:18;34.60;;;7.97;;
32876;SDS011;19226;51.600;8.034;2023-02-22T05:26:03;39.92;;;7.75;;
32876;SDS011;19226;51.600;8.034;2023-02-22T05:28:49;30.13;;;9.32;;
32876;SDS011;19226;51.600;8.034;2023-02-22T05:31:33;42.08;;;8.73;;
32876;SDS011;19226;51.600;8.034;2023-02-22T05:34:18;19.15;;;8.10;;
32876;SDS011;19226;51.600;8.034;2023-02-22T05:37:03;35.33;;;8.15;;
32876;SDS011;19226;51.600;8.034;2023-02-22T05:39:47;39.00;;;8.00;;
32876;SDS011;19226;51.600;8.034;2023-02-22T05:42:32;18.08;;;7.90;;
32876;SDS011;19226;51.600;8.034;2023-02-22T05:45:17;19.25;;;6.57;;
32876;SDS011;19226;51.600;8.034;2023-02-22T05:48:03;9.05;;;6.68;;
32876;SDS011;19226;51.600;8.034;2023-02-22T05:50:48;15.93;;;7.00;;
32876;SDS011;19226;51.600;8.034;2023-02-22T05:53:32;17.77;;;8.32;;
32876;SDS011;19226;51.600;8.034;2023-02-22T05:56:21;8.25;;;6.60;;
32876;SDS011;19226;51.600;8.034;2023-02-22T05:59:07;8.32;;;6.57;;
32876;SDS011;19226;51.600;8.034;2023-02-22T06:01:51;9.45;;;7.13;;
32876;SDS011;19226;51.600;8.034;2023-02-22T06:04:35;30.88;;;7.93;;
32876;SDS011;19226;51.600;8.034;2023-02-22T06:07:20;9.48;;;7.07;;
32876;SDS011;19226;51.600;8.034;2023-02-22T06:10:05;13.27;;;7.72;;
32876;SDS011;19226;51.600;8.034;2023-02-22T06:12:50;9.50;;;6.82;;
32876;SDS011;19226;51.600;8.034;2023-02-22T06:15:36;8.88;;;7.03;;
32876;SDS011;19226;51.600;8.034;2023-02-22T06:18:21;9.52;;;6.97;;
32876;SDS011;19226;51.600;8.034;2023-02-22T06:21:06;7.55;;;6.28;;
32876;SDS011;19226;51.600;8.034;2023-02-22T06:23:52;10.55;;;6.65;;
32876;SDS011;19226;51.600;8.034;2023-02-22T06:26:36;9.52;;;6.45;;
32876;SDS011;19226;51.600;8.034;2023-02-22T06:29:22;7.50;;;6.53;;
32876;SDS011;19226;51.600;8.034;2023-02-22T06:32:07;9.47;;;6.70;;
32876;SDS011;19226;51.600;8.034;2023-02-22T06:34:51;9.95;;;7.35;;
32876;SDS011;19226;51.600;8.034;2023-02-22T06:37:38;14.30;;;7.10;;
32876;SDS011;19226;51.600;8.034;2023-02-22T06:40:22;33.05;;;7.35;;
32876;SDS011;19226;51.600;8.034;2023-02-22T06:43:07;26.48;;;7.47;;
32876;SDS011;19226;51.600;8.034;2023-02-22T06:45:53;50.60;;;8.30;;
32876;SDS011;19226;51.600;8.034;2023-02-22T06:48:38;12.40;;;7.95;;
32876;SDS011;19226;51.600;8.034;2023-02-22T06:51:23;12.57;;;8.80;;
32876;SDS011;19226;51.600;8.034;2023-02-22T06:54:07;17.33;;;9.77;;
32876;SDS011;19226;51.600;8.034;2023-02-22T06:56:52;49.08;;;9.18;;
32876;SDS011;19226;51.600;8.034;2023-02-22T06:59:37;18.85;;;7.97;;
32876;SDS011;19226;51.600;8.034;2023-02-22T07:02:21;23.90;;;7.43;;
32876;SDS011;19226;51.600;8.034;2023-02-22T07:05:06;9.38;;;6.65;;
32876;SDS011;19226;51.600;8.034;2023-02-22T07:07:51;16.77;;;7.82;;
32876;SDS011;19226;51.600;8.034;2023-02-22T07:10:38;13.00;;;7.85;;
32876;SDS011;19226;51.600;8.034;2023-02-22T07:13:23;20.65;;;7.97;;
32876;SDS011;19226;51.600;8.034;2023-02-22T07:16:07;12.35;;;7.78;;
32876;SDS011;19226;51.600;8.034;2023-02-22T07:18:52;10.15;;;7.32;;
32876;SDS011;19226;51.600;8.034;2023-02-22T07:21:36;11.15;;;7.68;;
32876;SDS011;19226;51.600;8.034;2023-02-22T07:24:21;9.48;;;6.90;;
32876;SDS011;19226;51.600;8.034;2023-02-22T07:27:05;10.15;;;6.50;;
32876;SDS011;19226;51.600;8.034;2023-02-22T07:29:50;7.95;;;6.05;;
32876;SDS011;19226;51.600;8.034;2023-02-22T07:32:34;9.85;;;7.22;;
32876;SDS011;19226;51.600;8.034;2023-02-22T07:35:23;7.97;;;6.57;;
32876;SDS011;19226;51.600;8.034;2023-02-22T07:38:09;10.95;;;7.68;;
32876;SDS011;19226;51.600;8.034;2023-02-22T07:40:54;9.02;;;6.43;;
32876;SDS011;19226;51.600;8.034;2023-02-22T07:43:40;10.20;;;7.25;;
32876;SDS011;19226;51.600;8.034;2023-02-22T07:46:25;12.70;;;7.45;;
32876;SDS011;19226;51.600;8.034;2023-02-22T07:49:09;14.23;;;7.43;;
32876;SDS011;19226;51.600;8.034;2023-02-22T07:51:54;11.85;;;8.40;;
32876;SDS011;19226;51.600;8.034;2023-02-22T07:54:38;11.77;;;8.35;;
32876;SDS011;19226;51.600;8.034;2023-02-22T07:57:23;13.13;;;8.43;;
32876;SDS011;19226;51.600;8.034;2023-02-22T08:00:08;10.55;;;7.80;;
32876;SDS011;19226;51.600;8.034;2023-02-22T08:02:57;8.13;;;6.10;;
32876;SDS011;19226;51.600;8.034;2023-02-22T08:05:47;11.38;;;7.55;;
32876;SDS011;19226;51.600;8.034;2023-02-22T08:08:36;10.15;;;7.40;;
32876;SDS011;19226;51.600;8.034;2023-02-22T08:11:21;11.90;;;8.38;;
32876;SDS011;19226;51.600;8.034;2023-02-22T08:14:06;11.38;;;7.68;;
32876;SDS011;19226;51.600;8.034;2023-02-22T08:16:51;11.13;;;7.75;;
32876;SDS011;19226;51.600;8.034;2023-02-22T08:19:35;10.50;;;8.23;;
32876;SDS011;19226;51.600;8.034;2023-02-22T08:22:20;14.23;;;9.77;;
32876;SDS011;19226;51.600;8.034;2023-02-22T08:25:05;12.93;;;9.05;;
32876;SDS011;19226;51.600;8.034;2023-02-22T08:27:50;12.40;;;9.15;;
32876;SDS011;19226;51.600;8.034;2023-02-22T08:30:35;14.95;;;10.20;;
32876;SDS011;19226;51.600;8.034;2023-02-22T08:33:21;18.48;;;10.45;;
32876;SDS011;19226;51.600;8.034;2023-02-22T08:36:05;15.07;;;10.23;;
32876;SDS011;19226;51.600;8.034;2023-02-22T08:38:50;16.33;;;10.50;;
32876;SDS011;19226;51.600;8.034;2023-02-22T08:41:35;17.92;;;11.30;;
32876;SDS011;19226;51.600;8.034;2023-02-22T08:44:19;22.02;;;12.13;;
32876;SDS011;19226;51.600;8.034;2023-02-22T08:47:04;23.80;;;12.65;;
32876;SDS011;19226;51.600;8.034;2023-02-22T08:49:49;21.85;;;11.15;;
32876;SDS011;19226;51.600;8.034;2023-02-22T08:52:34;25.33;;;11.45;;
32876;SDS011;19226;51.600;8.034;2023-02-22T08:55:19;21.88;;;11.93;;
32876;SDS011;19226;51.600;8.034;2023-02-22T08:58:04;19.10;;;11.10;;
32876;SDS011;19226;51.600;8.034;2023-02-22T09:00:52;22.55;;;11.10;;
32876;SDS011;19226;51.600;8.034;2023-02-22T09:03:36;17.90;;;10.45;;
32876;SDS011;19226;51.600;8.034;2023-02-22T09:06:21;17.00;;;10.93;;
32876;SDS011;19226;51.600;8.034;2023-02-22T09:09:06;15.38;;;10.73;;
32876;SDS011;19226;51.600;8.034;2023-02-22T09:11:50;27.02;;;13.35;;
32876;SDS011;19226;51.600;8.034;2023-02-22T09:14:35;23.30;;;13.85;;
32876;SDS011;19226;51.600;8.034;2023-02-22T09:17:20;31.17;;;14.27;;
32876;SDS011;19226;51.600;8.034;2023-02-22T09:20:05;26.67;;;13.43;;
32876;SDS011;19226;51.600;8.034;2023-02-22T09:22:51;28.48;;;14.68;;
32876;SDS011;19226;51.600;8.034;2023-02-22T09:25:36;24.15;;;13.05;;
32876;SDS011;19226;51.600;8.034;2023-02-22T09:28:23;23.27;;;11.93;;
32876;SDS011;19226;51.600;8.034;2023-02-22T09:31:07;32.47;;;15.07;;
32876;SDS011;19226;51.600;8.034;2023-02-22T09:33:52;22.45;;;11.88;;
32876;SDS011;19226;51.600;8.034;2023-02-22T09:36:36;15.55;;;10.35;;
32876;SDS011;19226;51.600;8.034;2023-02-22T09:39:22;16.70;;;10.07;;
32876;SDS011;19226;51.600;8.034;2023-02-22T09:42:27;17.23;;;9.57;;
32876;SDS011;19226;51.600;8.034;2023-02-22T09:45:19;16.10;;;9.93;;
32876;SDS011;19226;51.600;8.034;2023-02-22T09:48:10;15.05;;;10.13;;
32876;SDS011;19226;51.600;8.034;2023-02-22T09:50:58;12.93;;;9.05;;
32876;SDS011;19226;51.600;8.034;2023-02-22T09:53:45;19.35;;;9.20;;
32876;SDS011;19226;51.600;8.034;2023-02-22T09:56:33;14.95;;;8.48;;
32876;SDS011;19226;51.600;8.034;2023-02-22T09:59:29;16.30;;;8.60;;
32876;SDS011;19226;51.600;8.034;2023-02-22T10:08:13;15.85;;;9.02;;
32876;SDS011;19226;51.600;8.034;2023-02-22T10:11:09;15.48;;;10.00;;
32876;SDS011;19226;51.600;8.034;2023-02-22T10:23:10;14.93;;;9.13;;
32876;SDS011;19226;51.600;8.034;2023-02-22T10:26:19;14.35;;;8.40;;
32876;SDS011;19226;51.600;8.034;2023-02-22T10:32:20;13.05;;;7.63;;
32876;SDS011;19226;51.600;8.034;2023-02-22T10:35:23;10.05;;;6.90;;
32876;SDS011;19226;51.600;8.034;2023-02-22T10:43:53;10.90;;;7.32;;
32876;SDS011;19226;51.600;8.034;2023-02-22T10:46:38;11.82;;;7.57;;
32876;SDS011;19226;51.600;8.034;2023-02-22T10:49:33;9.98;;;7.03;;
32876;SDS011;19226;51.600;8.034;2023-02-22T10:52:31;13.93;;;8.27;;
32876;SDS011;19226;51.600;8.034;2023-02-22T10:55:16;13.68;;;7.45;;
32876;SDS011;19226;51.600;8.034;2023-02-22T10:58:02;12.82;;;7.97;;
32876;SDS011;19226;51.600;8.034;2023-02-22T11:00:50;12.05;;;7.70;;
32876;SDS011;19226;51.600;8.034;2023-02-22T11:03:35;9.57;;;5.35;;
32876;SDS011;19226;51.600;8.034;2023-02-22T11:06:20;12.00;;;5.57;;
32876;SDS011;19226;51.600;8.034;2023-02-22T11:09:06;9.00;;;5.68;;
32876;SDS011;19226;51.600;8.034;2023-02-22T11:12:09;6.88;;;4.90;;
32876;SDS011;19226;51.600;8.034;2023-02-22T11:15:22;7.78;;;5.05;;
32876;SDS011;19226;51.600;8.034;2023-02-22T11:18:15;4.20;;;3.63;;
32876;SDS011;19226;51.600;8.034;2023-02-22T11:21:07;7.50;;;3.50;;
32876;SDS011;19226;51.600;8.034;2023-02-22T11:27:09;5.53;;;3.17;;
32876;SDS011;19226;51.600;8.034;2023-02-22T11:30:26;8.48;;;3.53;;
32876;SDS011;19226;51.600;8.034;2023-02-22T11:36:01;5.10;;;3.40;;
32876;SDS011;19226;51.600;8.034;2023-02-22T11:38:53;9.93;;;3.13;;
32876;SDS011;19226;51.600;8.034;2023-02-22T11:41:38;7.63;;;3.38;;
32876;SDS011;19226;51.600;8.034;2023-02-22T11:47:10;4.22;;;2.85;;
32876;SDS011;19226;51.600;8.034;2023-02-22T11:49:55;9.63;;;3.30;;
32876;SDS011;19226;51.600;8.034;2023-02-22T11:52:41;4.55;;;2.70;;
32876;SDS011;19226;51.600;8.034;2023-02-22T11:55:42;4.70;;;3.03;;
32876;SDS011;19226;51.600;8.034;2023-02-22T11:58:40;5.38;;;2.90;;
32876;SDS011;19226;51.600;8.034;2023-02-22T12:01:52;3.55;;;2.58;;
32876;SDS011;19226;51.600;8.034;2023-02-22T12:04:54;5.60;;;2.40;;
32876;SDS011;19226;51.600;8.034;2023-02-22T12:07:50;16.17;;;2.57;;
32876;SDS011;19226;51.600;8.034;2023-02-22T12:10:54;5.95;;;2.50;;
32876;SDS011;19226;51.600;8.034;2023-02-22T12:17:28;6.57;;;1.92;;
32876;SDS011;19226;51.600;8.034;2023-02-22T12:21:15;4.95;;;2.20;;
32876;SDS011;19226;51.600;8.034;2023-02-22T12:26:32;4.32;;;2.22;;
32876;SDS011;19226;51.600;8.034;2023-02-22T12:29:25;4.88;;;2.38;;
32876;SDS011;19226;51.600;8.034;2023-02-22T12:32:28;2.53;;;1.77;;
32876;SDS011;19226;51.600;8.034;2023-02-22T12:35:27;4.55;;;2.53;;
32876;SDS011;19226;51.600;8.034;2023-02-22T12:38:34;4.32;;;2.53;;
32876;SDS011;19226;51.600;8.034;2023-02-22T12:41:45;3.80;;;2.35;;
32876;SDS011;19226;51.600;8.034;2023-02-22T12:44:34;4.55;;;2.40;;
32876;SDS011;19226;51.600;8.034;2023-02-22T12:47:25;2.83;;;2.10;;
32876;SDS011;19226;51.600;8.034;2023-02-22T12:50:41;4.50;;;2.28;;
32876;SDS011;19226;51.600;8.034;2023-02-22T12:53:58;3.75;;;2.35;;
32876;SDS011;19226;51.600;8.034;2023-02-22T13:00:57;4.30;;;2.45;;
32876;SDS011;19226;51.600;8.034;2023-02-22T13:03:46;2.67;;;1.95;;
32876;SDS011;19226;51.600;8.034;2023-02-22T13:10:30;5.43;;;1.77;;
32876;SDS011;19226;51.600;8.034;2023-02-22T13:13:54;2.00;;;1.73;;
32876;SDS011;19226;51.600;8.034;2023-02-22T13:16:42;6.03;;;1.85;;
32876;SDS011;19226;51.600;8.034;2023-02-22T13:26:18;3.92;;;1.73;;
32876;SDS011;19226;51.600;8.034;2023-02-22T13:35:28;3.60;;;1.30;;
32876;SDS011;19226;51.600;8.034;2023-02-22T13:41:53;3.17;;;1.52;;
32876;SDS011;19226;51.600;8.034;2023-02-22T13:45:01;8.52;;;1.75;;
32876;SDS011;19226;51.600;8.034;2023-02-22T13:54:02;2.58;;;1.52;;
32876;SDS011;19226;51.600;8.034;2023-02-22T13:56:56;1.65;;;1.40;;
32876;SDS011;19226;51.600;8.034;2023-02-22T13:59:41;2.28;;;1.30;;
32876;SDS011;19226;51.600;8.034;2023-02-22T14:02:31;2.03;;;1.50;;
32876;SDS011;19226;51.600;8.034;2023-02-22T14:23:24;1.10;;;1.00;;
32876;SDS011;19226;51.600;8.034;2023-02-22T14:26:24;3.08;;;1.20;;
32876;SDS011;19226;51.600;8.034;2023-02-22T14:29:21;12.38;;;1.10;;
32876;SDS011;19226;51.600;8.034;2023-02-22T14:32:08;3.35;;;1.77;;
32876;SDS011;19226;51.600;8.034;2023-02-22T14:34:55;1.67;;;1.15;;
32876;SDS011;19226;51.600;8.034;2023-02-22T14:37:43;4.20;;;1.40;;
32876;SDS011;19226;51.600;8.034;2023-02-22T14:40:35;4.97;;;3.25;;
32876;SDS011;19226;51.600;8.034;2023-02-22T14:43:21;8.88;;;4.45;;
32876;SDS011;19226;51.600;8.034;2023-02-22T14:46:09;4.07;;;2.10;;
32876;SDS011;19226;51.600;8.034;2023-02-22T14:49:00;2.50;;;1.90;;
32876;SDS011;19226;51.600;8.034;2023-02-22T14:51:49;1.30;;;1.10;;
32876;SDS011;19226;51.600;8.034;2023-02-22T14:54:46;4.03;;;1.67;;
32876;SDS011;19226;51.600;8.034;2023-02-22T15:00:39;3.40;;;1.90;;
32876;SDS011;19226;51.600;8.034;2023-02-22T15:03:29;7.35;;;3.03;;
32876;SDS011;19226;51.600;8.034;2023-02-22T15:06:21;4.80;;;2.30;;
32876;SDS011;19226;51.600;8.034;2023-02-22T15:09:16;5.47;;;1.98;;
32876;SDS011;19226;51.600;8.034;2023-02-22T15:15:00;3.03;;;1.75;;
32876;SDS011;19226;51.600;8.034;2023-02-22T15:17:56;8.20;;;4.22;;
32876;SDS011;19226;51.600;8.034;2023-02-22T15:20:41;9.43;;;3.15;;
32876;SDS011;19226;51.600;8.034;2023-02-22T15:23:27;4.65;;;2.40;;
32876;SDS011;19226;51.600;8.034;2023-02-22T15:26:17;3.22;;;1.77;;
32876;SDS011;19226;51.600;8.034;2023-02-22T15:29:06;3.35;;;1.90;;
32876;SDS011;19226;51.600;8.034;2023-02-22T15:31:53;5.50;;;2.20;;
32876;SDS011;19226;51.600;8.034;2023-02-22T15:34:39;3.08;;;2.13;;
32876;SDS011;19226;51.600;8.034;2023-02-22T15:37:25;11.32;;;3.17;;
32876;SDS011;19226;51.600;8.034;2023-02-22T15:40:18;4.63;;;3.38;;
32876;SDS011;19226;51.600;8.034;2023-02-22T15:43:04;4.22;;;2.80;;
32876;SDS011;19226;51.600;8.034;2023-02-22T15:45:53;5.13;;;3.25;;
32876;SDS011;19226;51.600;8.034;2023-02-22T15:48:39;5.38;;;2.95;;
32876;SDS011;19226;51.600;8.034;2023-02-22T15:51:24;4.38;;;3.10;;
32876;SDS011;19226;51.600;8.034;2023-02-22T15:54:12;5.18;;;3.58;;
32876;SDS011;19226;51.600;8.034;2023-02-22T15:56:58;5.05;;;3.03;;
32876;SDS011;19226;51.600;8.034;2023-02-22T15:59:44;5.15;;;3.17;;
32876;SDS011;19226;51.600;8.034;2023-02-22T16:05:18;7.43;;;3.40;;
32876;SDS011;19226;51.600;8.034;2023-02-22T16:08:02;6.70;;;3.53;;
32876;SDS011;19226;51.600;8.034;2023-02-22T16:13:51;11.07;;;4.25;;
32876;SDS011;19226;51.600;8.034;2023-02-22T16:16:37;14.75;;;3.55;;
32876;SDS011;19226;51.600;8.034;2023-02-22T16:19:36;5.90;;;3.40;;
32876;SDS011;19226;51.600;8.034;2023-02-22T16:22:32;6.22;;;3.28;;
32876;SDS011;19226;51.600;8.034;2023-02-22T16:28:03;8.85;;;4.22;;
32876;SDS011;19226;51.600;8.034;2023-02-22T16:31:08;4.65;;;3.47;;
32876;SDS011;19226;51.600;8.034;2023-02-22T16:33:53;4.55;;;4.07;;
32876;SDS011;19226;51.600;8.034;2023-02-22T16:36:41;13.95;;;10.95;;
32876;SDS011;19226;51.600;8.034;2023-02-22T16:39:29;6.03;;;4.05;;
32876;SDS011;19226;51.600;8.034;2023-02-22T16:42:14;7.93;;;5.47;;
32876;SDS011;19226;51.600;8.034;2023-02-22T16:45:02;7.28;;;3.80;;
32876;SDS011;19226;51.600;8.034;2023-02-22T16:47:47;13.85;;;8.18;;
32876;SDS011;19226;51.600;8.034;2023-02-22T16:50:36;5.82;;;3.45;;
32876;SDS011;19226;51.600;8.034;2023-02-22T16:53:21;7.13;;;3.47;;
32876;SDS011;19226;51.600;8.034;2023-02-22T16:56:08;6.57;;;3.40;;
32876;SDS011;19226;51.600;8.034;2023-02-22T16:58:56;5.43;;;3.50;;
32876;SDS011;19226;51.600;8.034;2023-02-22T17:01:44;4.15;;;3.17;;
32876;SDS011;19226;51.600;8.034;2023-02-22T17:04:28;3.35;;;2.80;;
32876;SDS011;19226;51.600;8.034;2023-02-22T17:07:13;4.25;;;3.45;;
32876;SDS011;19226;51.600;8.034;2023-02-22T17:10:01;11.57;;;3.38;;
32876;SDS011;19226;51.600;8.034;2023-02-22T17:12:46;5.63;;;3.10;;
32876;SDS011;19226;51.600;8.034;2023-02-22T17:15:33;5.63;;;3.33;;
32876;SDS011;19226;51.600;8.034;2023-02-22T17:18:19;5.05;;;3.38;;
32876;SDS011;19226;51.600;8.034;2023-02-22T17:21:05;5.43;;;2.65;;
32876;SDS011;19226;51.600;8.034;2023-02-22T17:23:50;4.88;;;2.92;;
32876;SDS011;19226;51.600;8.034;2023-02-22T17:26:34;7.15;;;3.08;;
32876;SDS011;19226;51.600;8.034;2023-02-22T17:29:20;8.43;;;5.25;;
32876;SDS011;19226;51.600;8.034;2023-02-22T17:32:04;7.47;;;6.18;;
32876;SDS011;19226;51.600;8.034;2023-02-22T17:34:50;9.90;;;5.07;;
32876;SDS011;19226;51.600;8.034;2023-02-22T17:37:35;6.43;;;5.78;;
32876;SDS011;19226;51.600;8.034;2023-02-22T17:40:20;9.85;;;7.72;;
32876;SDS011;19226;51.600;8.034;2023-02-22T17:43:05;6.78;;;5.90;;
32876;SDS011;19226;51.600;8.034;2023-02-22T17:45:51;7.70;;;4.57;;
32876;SDS011;19226;51.600;8.034;2023-02-22T17:48:36;7.45;;;4.15;;
32876;SDS011;19226;51.600;8.034;2023-02-22T17:51:22;4.88;;;3.92;;
32876;SDS011;19226;51.600;8.034;2023-02-22T17:54:08;6.18;;;4.50;;
32876;SDS011;19226;51.600;8.034;2023-02-22T17:56:52;9.07;;;4.57;;
32876;SDS011;19226;51.600;8.034;2023-02-22T17:59:37;7.88;;;4.10;;
32876;SDS011;19226;51.600;8.034;2023-02-22T18:02:22;7.63;;;4.88;;
32876;SDS011;19226;51.600;8.034;2023-02-22T18:05:13;7.82;;;4.35;;
32876;SDS011;19226;51.600;8.034;2023-02-22T18:08:00;6.65;;;4.85;;
32876;SDS011;19226;51.600;8.034;2023-02-22T18:10:45;15.55;;;4.75;;
32876;SDS011;19226;51.600;8.034;2023-02-22T18:13:30;6.90;;;4.65;;
32876;SDS011;19226;51.600;8.034;2023-02-22T18:16:14;7.28;;;4.60;;
32876;SDS011;19226;51.600;8.034;2023-02-22T18:18:59;8.60;;;4.85;;
32876;SDS011;19226;51.600;8.034;2023-02-22T18:21:44;9.23;;;4.93;;
32876;SDS011;19226;51.600;8.034;2023-02-22T18:24:32;5.03;;;4.53;;
32876;SDS011;19226;51.600;8.034;2023-02-22T18:27:17;19.73;;;5.65;;
32876;SDS011;19226;51.600;8.034;2023-02-22T18:30:03;7.25;;;5.65;;
32876;SDS011;19226;51.600;8.034;2023-02-22T18:32:48;31.17;;;14.73;;
32876;SDS011;19226;51.600;8.034;2023-02-22T18:35:32;12.95;;;9.18;;
32876;SDS011;19226;51.600;8.034;2023-02-22T18:38:17;18.00;;;10.07;;
32876;SDS011;19226;51.600;8.034;2023-02-22T18:41:10;17.52;;;10.57;;
32876;SDS011;19226;51.600;8.034;2023-02-22T18:43:57;19.95;;;13.88;;
32876;SDS011;19226;51.600;8.034;2023-02-22T18:46:43;28.63;;;18.83;;